Time;durP1;ratioP1;P1;durP2;ratioP2;P2;SDS_P1;SDS_P2;PMS_P1;PMS_P2;Temp;Humidity;BMP_temperature;BMP_pressure;BME280_temperature;BME280_humidity;BME280_pressure;Samples;Min_cycle;Max_cycle;Signal;HPM_P1;HPM_P2
2021/03/23 00:00:51;;;;;;;0.70;0.60;;;;;;;4.99;82.53;101298.63;5054757;28;20171;-72
2021/03/23 00:03:27;;;;;;;0.50;0.50;;;;;;;4.99;82.50;101301.31;5054671;28;20179;-72
2021/03/23 00:05:53;;;;;;;0.57;0.57;;;;;;;4.96;82.16;101298.31;5054897;28;20170;-72
2021/03/23 00:08:28;;;;;;;0.10;0.10;;;;;;;4.94;81.78;101287.72;5054407;28;20183;-72
2021/03/23 00:10:55;;;;;;;0.60;0.60;;;;;;;4.93;81.60;101298.81;5054836;28;20613;-72
2021/03/23 00:13:21;;;;;;;1.27;1.20;;;;;;;4.91;81.86;101287.41;5054617;28;20175;-71
2021/03/23 00:15:47;;;;;;;0.57;0.57;;;;;;;4.93;81.43;101291.50;5054539;28;20244;-72
2021/03/23 00:18:12;;;;;;;0.73;0.73;;;;;;;4.93;81.06;101291.50;5054140;28;20197;-73
2021/03/23 00:20:39;;;;;;;0.40;0.40;;;;;;;4.95;81.41;101286.66;5053041;28;20759;-72
2021/03/23 00:23:05;;;;;;;1.20;0.93;;;;;;;4.96;81.11;101290.19;5054287;28;20179;-73
2021/03/23 00:25:31;;;;;;;0.97;0.80;;;;;;;4.95;81.11;101288.56;5054307;28;20190;-72
2021/03/23 00:27:56;;;;;;;1.40;1.07;;;;;;;4.94;81.38;101290.44;5052881;28;20180;-73
2021/03/23 00:30:22;;;;;;;0.60;0.60;;;;;;;4.94;80.98;101286.91;5052685;28;20623;-73
2021/03/23 00:32:48;;;;;;;0.97;0.57;;;;;;;4.93;80.65;101290.69;5054226;28;20179;-72
2021/03/23 00:35:14;;;;;;;0.83;0.83;;;;;;;4.92;80.44;101283.63;5054323;28;20234;-72
2021/03/23 00:37:41;;;;;;;0.97;0.93;;;;;;;4.92;80.27;101284.47;5053786;28;20249;-73
2021/03/23 00:40:13;;;;;;;0.97;0.97;;;;;;;4.95;80.10;101289.38;5054100;28;20163;-72
2021/03/23 00:42:38;;;;;;;1.20;0.73;;;;;;;4.94;79.88;101289.63;5054066;28;20523;-73
2021/03/23 00:45:05;;;;;;;0.97;0.70;;;;;;;4.96;80.28;101284.78;5054097;28;20179;-73
2021/03/23 00:47:30;;;;;;;0.80;0.70;;;;;;;4.95;80.61;101281.25;5053457;28;20206;-72
2021/03/23 00:49:56;;;;;;;4.63;0.50;;;;;;;4.93;80.42;101286.09;5053907;28;20179;-74
2021/03/23 00:52:21;;;;;;;0.33;0.33;;;;;;;4.94;80.50;101285.03;5055148;28;20178;-73
2021/03/23 00:54:50;;;;;;;0.67;0.67;;;;;;;4.93;79.32;101280.69;5053733;28;20210;-72
2021/03/23 00:57:15;;;;;;;0.90;0.80;;;;;;;4.93;79.57;101285.28;5069077;28;20261;-72
2021/03/23 00:59:40;;;;;;;4.07;0.80;;;;;;;4.90;79.40;101289.28;5069426;28;20316;-72
2021/03/23 01:02:06;;;;;;;1.20;0.67;;;;;;;4.89;79.91;101282.25;5052421;28;20179;-72
2021/03/23 01:04:31;;;;;;;2.30;1.00;;;;;;;4.88;79.78;101285.19;5053921;28;20262;-72
2021/03/23 01:06:56;;;;;;;0.93;0.70;;;;;;;4.86;79.65;101290.88;5053340;28;20596;-75
2021/03/23 01:09:22;;;;;;;0.50;0.33;;;;;;;4.89;79.91;101289.53;5053707;28;20171;-75
2021/03/23 01:11:47;;;;;;;0.60;0.60;;;;;;;4.88;80.34;101285.19;5053774;28;20175;-73
2021/03/23 01:14:13;;;;;;;0.60;0.60;;;;;;;4.83;80.43;101285.16;5053758;28;20199;-74
2021/03/23 01:16:38;;;;;;;1.40;0.73;;;;;;;4.82;79.99;101281.63;5053225;28;20205;-74
2021/03/23 01:19:03;;;;;;;1.80;1.10;;;;;;;4.82;80.32;101291.63;5053433;28;20209;-74
2021/03/23 01:21:29;;;;;;;4.43;1.27;;;;;;;4.78;80.66;101284.03;5053586;28;20615;-74
2021/03/23 01:23:54;;;;;;;4.43;1.00;;;;;;;4.79;80.65;101287.56;5053312;28;20577;-75
2021/03/23 01:26:20;;;;;;;0.77;0.77;;;;;;;4.79;80.99;101284.84;5052953;28;20632;-75
2021/03/23 01:28:45;;;;;;;4.93;0.80;;;;;;;4.75;80.84;101284.50;5054973;28;20215;-75
2021/03/23 01:31:11;;;;;;;0.60;0.60;;;;;;;4.78;80.93;101277.78;5056021;28;20175;-74
2021/03/23 01:33:37;;;;;;;0.63;0.63;;;;;;;4.74;81.31;101273.94;5053981;28;20202;-75
2021/03/23 01:36:04;;;;;;;1.27;1.17;;;;;;;4.75;81.39;101279.09;5053009;28;20280;-75
2021/03/23 01:38:29;;;;;;;1.10;0.83;;;;;;;4.74;81.50;101280.16;5034913;28;20266;-74
2021/03/23 01:40:54;;;;;;;0.50;0.50;;;;;;;4.73;81.96;101281.25;5053091;28;20258;-74
2021/03/23 01:43:29;;;;;;;0.63;0.40;;;;;;;4.71;81.56;101287.97;5052652;28;20175;-75
2021/03/23 01:46:00;;;;;;;0.63;0.50;;;;;;;4.69;81.79;101287.41;5052719;28;20186;-75
2021/03/23 01:48:31;;;;;;;1.10;0.53;;;;;;;4.68;82.08;101283.88;5052412;28;20254;-75
2021/03/23 01:51:07;;;;;;;0.97;0.80;;;;;;;4.71;81.93;101287.97;5052482;28;20506;-75
2021/03/23 01:53:44;;;;;;;1.33;1.00;;;;;;;4.71;82.17;101283.38;5052448;28;20587;-74
2021/03/23 01:56:11;;;;;;;0.83;0.73;;;;;;;4.69;81.60;101285.53;5051358;28;20252;-75
2021/03/23 01:58:40;;;;;;;4.80;0.93;;;;;;;4.68;81.83;101281.19;5034445;28;20536;-74
2021/03/23 02:01:10;;;;;;;2.87;0.60;;;;;;;4.66;82.05;101288.75;5052323;28;20183;-75
2021/03/23 02:03:36;;;;;;;0.70;0.70;;;;;;;4.65;81.86;101292.50;5052280;28;20269;-74
2021/03/23 02:06:02;;;;;;;0.67;0.63;;;;;;;4.65;81.79;101289.00;5034147;28;20611;-75
2021/03/23 02:08:28;;;;;;;1.03;0.50;;;;;;;4.63;81.62;101288.41;5052301;28;20176;-75
2021/03/23 02:10:56;;;;;;;0.30;0.30;;;;;;;4.61;81.81;101287.84;5052520;28;20222;-73
2021/03/23 02:13:21;;;;;;;0.80;0.80;;;;;;;4.54;82.71;101279.91;5051950;28;20186;-73
2021/03/23 02:15:47;;;;;;;6.87;1.30;;;;;;;4.56;83.18;101280.47;5052543;28;20207;-75
2021/03/23 02:18:21;;;;;;;1.07;0.67;;;;;;;4.52;82.83;101276.66;5051810;28;20175;-75
2021/03/23 02:21:03;;;;;;;5.40;1.03;;;;;;;4.52;83.08;101275.84;5051999;28;20571;-74
2021/03/23 02:23:36;;;;;;;0.70;0.67;;;;;;;4.50;83.43;101278.78;5034107;28;20176;-75
2021/03/23 02:26:04;;;;;;;1.10;1.00;;;;;;;4.49;83.87;101282.56;5033899;28;20179;-74
2021/03/23 02:28:29;;;;;;;1.20;0.97;;;;;;;4.44;84.36;101285.19;5058025;28;20190;-75
2021/03/23 02:30:55;;;;;;;1.73;1.47;;;;;;;4.44;84.42;101283.28;5071792;28;20224;-74
2021/03/23 02:33:21;;;;;;;2.30;1.30;;;;;;;4.45;84.53;101281.41;5071687;28;20768;-74
2021/03/23 02:35:47;;;;;;;0.73;0.63;;;;;;;4.45;85.02;101282.22;5071474;28;20708;-74
2021/03/23 02:38:12;;;;;;;1.17;1.10;;;;;;;4.44;85.00;101288.69;5053128;28;20178;-75
2021/03/23 02:40:41;;;;;;;2.00;1.03;;;;;;;4.43;85.09;101288.97;5071578;28;20630;-76
2021/03/23 02:43:06;;;;;;;1.50;1.33;;;;;;;4.42;85.07;101284.63;5071525;28;20198;-74
2021/03/23 02:45:31;;;;;;;1.43;0.97;;;;;;;4.41;85.28;101277.56;5071456;28;20217;-74
2021/03/23 02:47:57;;;;;;;1.53;1.37;;;;;;;4.39;85.22;101285.94;5071000;28;20261;-75
2021/03/23 02:50:22;;;;;;;1.00;0.70;;;;;;;4.40;85.24;101287.56;5071229;28;20213;-75
2021/03/23 02:52:48;;;;;;;0.50;0.50;;;;;;;4.41;85.44;101281.09;5071330;28;20179;-74
2021/03/23 02:55:14;;;;;;;0.53;0.53;;;;;;;4.42;85.16;101282.72;5071204;28;20275;-75
2021/03/23 02:57:39;;;;;;;5.50;1.23;;;;;;;4.41;85.40;101285.69;5070132;28;20178;-75
2021/03/23 03:00:07;;;;;;;4.97;0.87;;;;;;;4.42;85.34;101281.91;5071063;28;20183;-75
2021/03/23 03:02:33;;;;;;;1.40;1.10;;;;;;;4.43;85.29;101278.94;5071109;28;20178;-75
2021/03/23 03:04:58;;;;;;;1.00;1.00;;;;;;;4.46;85.30;101280.34;5071163;28;20187;-75
2021/03/23 03:07:24;;;;;;;4.23;0.90;;;;;;;4.48;85.82;101272.78;5070708;28;20181;-75
2021/03/23 03:09:49;;;;;;;0.60;0.60;;;;;;;4.49;85.40;101279.84;5052994;28;20174;-73
2021/03/23 03:12:14;;;;;;;1.77;1.67;;;;;;;4.50;85.26;101281.50;5071002;28;20240;-74
2021/03/23 03:14:40;;;;;;;2.73;1.63;;;;;;;4.46;85.70;101267.63;5071049;28;20704;-74
2021/03/23 03:17:05;;;;;;;1.60;1.40;;;;;;;4.46;85.58;101278.44;5070496;28;20193;-75
2021/03/23 03:19:30;;;;;;;4.27;0.87;;;;;;;4.47;85.79;101280.09;5070810;28;20267;-74
2021/03/23 03:21:56;;;;;;;1.30;0.93;;;;;;;4.45;85.37;101284.94;5070924;28;20185;-74
2021/03/23 03:24:21;;;;;;;1.53;1.10;;;;;;;4.47;85.85;101277.38;5070962;28;20619;-75
2021/03/23 03:26:47;;;;;;;0.77;0.77;;;;;;;4.48;85.69;101275.50;5069928;28;20196;-74
2021/03/23 03:29:12;;;;;;;1.47;1.17;;;;;;;4.48;85.32;101283.59;5070782;28;20186;-75
2021/03/23 03:31:37;;;;;;;1.10;0.80;;;;;;;4.48;85.39;101291.72;5070756;28;20573;-74
2021/03/23 03:34:03;;;;;;;1.07;1.03;;;;;;;4.45;85.25;101295.75;5070265;28;20227;-74
2021/03/23 03:36:31;;;;;;;1.67;0.93;;;;;;;4.44;85.40;101304.13;5070002;28;20213;-74
2021/03/23 03:38:56;;;;;;;2.00;1.30;;;;;;;4.44;85.43;101290.59;5070698;28;20177;-74
2021/03/23 03:41:23;;;;;;;1.37;1.27;;;;;;;4.47;85.57;101298.19;5070657;28;20170;-75
2021/03/23 03:43:49;;;;;;;1.30;1.20;;;;;;;4.49;85.32;101301.50;5070766;28;20307;-74
2021/03/23 03:46:14;;;;;;;1.17;1.07;;;;;;;4.47;85.19;101292.78;5070402;28;20261;-75
2021/03/23 03:48:40;;;;;;;1.47;1.33;;;;;;;4.45;85.38;101298.47;5070597;28;20630;-75
2021/03/23 03:51:06;;;;;;;1.60;1.20;;;;;;;4.43;85.71;101299.78;5070757;28;20182;-74
2021/03/23 03:53:32;;;;;;;0.97;0.93;;;;;;;4.41;85.47;101291.09;5070542;28;20488;-74
2021/03/23 03:55:57;;;;;;;3.13;0.80;;;;;;;4.42;85.71;101290.84;5069694;28;20284;-74
2021/03/23 03:58:23;;;;;;;0.97;0.67;;;;;;;4.44;85.50;101293.31;5070286;28;20198;-76
2021/03/23 04:00:48;;;;;;;2.03;1.53;;;;;;;4.46;86.03;101296.56;5070489;28;20297;-75
2021/03/23 04:03:23;;;;;;;2.87;2.10;;;;;;;4.44;86.10;101299.53;5070401;28;20201;-75
2021/03/23 04:05:50;;;;;;;1.27;1.17;;;;;;;4.45;85.89;101300.34;5070473;28;20166;-75
2021/03/23 04:08:20;;;;;;;7.17;1.63;;;;;;;4.42;86.26;101295.44;5070105;28;20170;-74
2021/03/23 04:10:46;;;;;;;0.63;0.63;;;;;;;4.40;86.44;101298.41;5070399;28;20175;-74
2021/03/23 04:13:12;;;;;;;0.87;0.80;;;;;;;4.39;86.40;101298.66;5070484;28;20642;-75
2021/03/23 04:15:41;;;;;;;1.90;1.27;;;;;;;4.38;86.04;101297.84;5070114;28;20276;-74
2021/03/23 04:18:08;;;;;;;1.77;1.67;;;;;;;4.38;85.89;101299.72;5070053;28;20178;-74
2021/03/23 04:20:34;;;;;;;7.47;0.90;;;;;;;4.38;85.93;101300.53;5061587;28;20423;-74
2021/03/23 04:23:00;;;;;;;2.40;0.80;;;;;;;4.37;86.41;101306.19;5050263;28;20176;-74
2021/03/23 04:25:30;;;;;;;1.03;0.80;;;;;;;4.39;86.18;101298.66;5050165;28;20206;-74
2021/03/23 04:27:56;;;;;;;1.67;1.53;;;;;;;4.42;85.89;101306.25;5049971;28;20177;-74
2021/03/23 04:30:23;;;;;;;1.13;1.03;;;;;;;4.44;86.25;101306.81;5050154;28;20187;-74
2021/03/23 04:32:50;;;;;;;1.20;1.13;;;;;;;4.45;86.02;101305.75;5050492;28;20221;-74
2021/03/23 04:35:38;;;;;;;1.93;1.30;;;;;;;4.47;86.34;101312.56;5050020;28;20217;-75
2021/03/23 04:38:03;;;;;;;1.43;1.27;;;;;;;4.50;86.32;101297.72;5053317;28;20655;-74
2021/03/23 04:40:29;;;;;;;1.23;1.13;;;;;;;4.48;86.38;101305.25;5053804;28;20167;-75
2021/03/23 04:42:54;;;;;;;1.27;1.13;;;;;;;4.44;86.66;101304.94;5053857;28;20183;-74
2021/03/23 04:45:19;;;;;;;0.77;0.77;;;;;;;4.42;86.59;101311.66;5054108;28;20183;-74
2021/03/23 04:47:47;;;;;;;2.57;1.10;;;;;;;4.41;86.38;101304.63;5053167;28;20183;-74
2021/03/23 04:50:14;;;;;;;2.10;1.33;;;;;;;4.39;86.11;101304.88;5053708;28;20180;-75
2021/03/23 04:52:39;;;;;;;2.40;1.87;;;;;;;4.41;85.86;101310.03;5053671;28;20258;-73
2021/03/23 04:55:06;;;;;;;2.03;1.83;;;;;;;4.42;85.81;101307.06;5053660;28;20293;-74
2021/03/23 04:57:31;;;;;;;1.70;1.60;;;;;;;4.40;86.07;101300.28;5052384;28;20505;-74
2021/03/23 04:59:56;;;;;;;1.10;1.00;;;;;;;4.39;86.17;101310.28;5053520;28;20175;-74
2021/03/23 05:02:22;;;;;;;1.70;1.37;;;;;;;4.41;86.15;101316.25;5053621;28;20203;-74
2021/03/23 05:04:47;;;;;;;1.37;1.23;;;;;;;4.39;85.32;101313.00;5053524;28;20183;-74
2021/03/23 05:07:13;;;;;;;6.37;1.20;;;;;;;4.38;85.50;101313.25;5053305;28;20175;-74
2021/03/23 05:09:38;;;;;;;0.87;0.80;;;;;;;4.39;85.94;101314.88;5053378;28;20537;-74
2021/03/23 05:12:04;;;;;;;1.20;1.10;;;;;;;4.40;86.00;101320.03;5053261;28;20183;-75
2021/03/23 05:14:29;;;;;;;9.57;1.87;;;;;;;4.42;85.55;101323.31;5035395;28;20195;-75
2021/03/23 05:16:55;;;;;;;1.57;1.27;;;;;;;4.42;85.25;101319.78;5052919;28;20229;-74
2021/03/23 05:19:20;;;;;;;2.60;1.40;;;;;;;4.41;85.89;101327.09;5035354;28;20634;-74
2021/03/23 05:21:45;;;;;;;1.30;1.20;;;;;;;4.44;86.20;101337.41;5053652;28;20211;-74
2021/03/23 05:24:11;;;;;;;1.10;1.00;;;;;;;4.48;85.99;101337.72;5053137;28;20172;-75
2021/03/23 05:26:37;;;;;;;1.37;1.27;;;;;;;4.54;86.32;101339.44;5052708;28;20167;-75
2021/03/23 05:29:03;;;;;;;1.50;1.40;;;;;;;4.56;85.42;101350.84;5053034;28;20187;-76
2021/03/23 05:31:30;;;;;;;1.80;1.60;;;;;;;4.54;85.24;101346.75;5053268;28;20438;-74
2021/03/23 05:33:55;;;;;;;2.27;1.20;;;;;;;4.55;84.94;101343.78;5053073;28;20179;-74
2021/03/23 05:36:22;;;;;;;2.20;2.10;;;;;;;4.57;85.30;101349.75;5052619;28;20213;-74
2021/03/23 05:38:47;;;;;;;2.03;1.87;;;;;;;4.57;84.26;101357.88;5053025;28;20230;-73
2021/03/23 05:41:37;;;;;;;1.33;1.23;;;;;;;4.52;84.83;101349.69;5052829;28;20495;-74
2021/03/23 05:44:34;;;;;;;1.77;1.67;;;;;;;4.52;85.01;101343.47;5052878;28;20171;-73
2021/03/23 05:47:00;;;;;;;1.83;1.57;;;;;;;4.52;85.66;101357.00;5052562;28;20529;-74
2021/03/23 05:49:36;;;;;;;2.60;1.63;;;;;;;4.53;85.29;101347.81;5052135;28;20205;-74
2021/03/23 05:52:04;;;;;;;3.17;1.67;;;;;;;4.54;85.53;101357.56;5053004;28;20175;-74
2021/03/23 05:54:40;;;;;;;1.43;1.33;;;;;;;4.56;85.11;101364.38;5052660;28;20195;-74
2021/03/23 05:57:16;;;;;;;1.50;1.40;;;;;;;4.59;85.66;101369.28;5051905;28;20167;-74
2021/03/23 05:59:49;;;;;;;1.07;0.97;;;;;;;4.60;85.73;101365.50;5065223;28;20170;-73
2021/03/23 06:02:27;;;;;;;0.83;0.83;;;;;;;4.59;85.97;101358.44;5072564;28;20179;-73
2021/03/23 06:05:09;;;;;;;5.50;1.20;;;;;;;4.56;86.25;101367.06;5072545;28;20219;-74
2021/03/23 06:07:36;;;;;;;1.23;1.13;;;;;;;4.53;86.87;101358.63;5072104;28;20179;-74
2021/03/23 06:10:12;;;;;;;1.83;0.97;;;;;;;4.51;87.05;101358.06;5072665;28;20189;-74
2021/03/23 06:12:47;;;;;;;1.23;1.13;;;;;;;4.50;87.14;101354.56;5072452;28;20162;-74
2021/03/23 06:15:31;;;;;;;1.30;1.13;;;;;;;4.50;87.26;101362.66;5072186;28;20729;-72
2021/03/23 06:18:04;;;;;;;1.40;1.13;;;;;;;4.52;87.20;101355.13;5072138;28;20174;-72
2021/03/23 06:20:48;;;;;;;1.63;1.53;;;;;;;4.49;87.41;101350.22;5072605;28;20249;-72
2021/03/23 06:23:41;;;;;;;1.37;0.77;;;;;;;4.48;87.98;101362.06;5072209;28;20166;-73
2021/03/23 06:26:24;;;;;;;1.20;1.10;;;;;;;4.52;87.37;101357.81;5053874;28;20537;-73
2021/03/23 06:29:12;;;;;;;1.80;1.70;;;;;;;4.52;87.70;101351.59;5071833;28;20597;-72
2021/03/23 06:31:49;;;;;;;0.87;0.87;;;;;;;4.53;87.90;101350.53;5071947;28;20175;-73
2021/03/23 06:34:19;;;;;;;1.27;1.17;;;;;;;4.48;88.00;101345.84;5053956;28;20650;-73
2021/03/23 06:36:45;;;;;;;0.73;0.70;;;;;;;4.47;88.25;101347.72;5071389;28;20269;-75
2021/03/23 06:39:11;;;;;;;2.27;1.30;;;;;;;4.47;87.84;101352.31;5071773;28;20742;-72
2021/03/23 06:41:57;;;;;;;1.97;1.20;;;;;;;4.47;88.05;101336.09;5071515;28;20236;-72
2021/03/23 06:44:29;;;;;;;1.30;1.00;;;;;;;4.41;87.86;101329.78;5053757;28;20538;-72
2021/03/23 06:46:55;;;;;;;3.70;1.57;;;;;;;4.39;87.69;101334.63;5071268;28;20171;-72
2021/03/23 06:49:27;;;;;;;1.83;1.63;;;;;;;4.41;87.83;101326.28;5071505;28;20178;-75
2021/03/23 06:51:56;;;;;;;0.63;0.63;;;;;;;4.41;87.36;101328.97;5053313;28;20508;-72
2021/03/23 06:54:31;;;;;;;1.67;1.57;;;;;;;4.40;87.20;101330.03;5071456;28;20171;-74
2021/03/23 06:57:13;;;;;;;0.87;0.87;;;;;;;4.40;87.42;101330.84;5070593;28;20625;-72
2021/03/23 06:59:44;;;;;;;1.87;1.73;;;;;;;4.40;87.95;101333.56;5070733;28;20203;-72
2021/03/23 07:02:29;;;;;;;4.07;1.77;;;;;;;4.46;87.89;101331.75;5071033;28;20185;-72
2021/03/23 07:04:55;;;;;;;0.80;0.80;;;;;;;4.47;87.36;101327.97;5071141;28;20182;-72
2021/03/23 07:07:22;;;;;;;0.80;0.80;;;;;;;4.47;87.60;101330.66;5070920;28;20212;-75
2021/03/23 07:09:58;;;;;;;3.70;2.77;;;;;;;4.46;87.59;101332.56;5071038;28;20175;-73
2021/03/23 07:12:40;;;;;;;1.63;1.50;;;;;;;4.47;87.53;101342.31;5071357;28;20162;-73
2021/03/23 07:15:30;;;;;;;2.67;2.47;;;;;;;4.48;87.69;101338.56;5071006;28;20198;-73
2021/03/23 07:18:04;;;;;;;1.03;1.03;;;;;;;4.49;87.62;101347.50;5065279;28;20328;-75
2021/03/23 07:20:33;;;;;;;0.57;0.53;;;;;;;4.50;87.95;101338.31;5071000;28;20173;-72
2021/03/23 07:23:01;;;;;;;2.83;1.07;;;;;;;4.48;87.74;101330.44;5071278;28;20167;-73
2021/03/23 07:25:41;;;;;;;1.13;1.10;;;;;;;4.51;87.86;101331.00;5071249;28;20563;-73
2021/03/23 07:28:27;;;;;;;1.03;0.67;;;;;;;4.53;87.31;101335.09;5070570;28;20166;-72
2021/03/23 07:31:21;;;;;;;5.53;0.63;;;;;;;4.53;86.88;101332.41;5071090;28;20154;-71
2021/03/23 07:34:10;;;;;;;3.43;2.80;;;;;;;4.60;86.88;101337.63;5070422;28;20178;-72
2021/03/23 07:36:47;;;;;;;1.37;0.80;;;;;;;4.64;86.53;101334.19;5070817;28;20241;-71
2021/03/23 07:39:26;;;;;;;1.23;1.13;;;;;;;4.68;85.81;101331.78;5058992;28;20167;-72
2021/03/23 07:42:11;;;;;;;11.43;1.93;;;;;;;4.76;85.11;101342.16;5033185;28;20171;-72
2021/03/23 07:44:40;;;;;;;12.23;1.57;;;;;;;4.83;84.23;101344.72;5053778;28;20163;-73
2021/03/23 07:47:44;;;;;;;5.93;1.43;;;;;;;4.89;84.35;101346.41;5052062;28;20171;-73
2021/03/23 07:50:18;;;;;;;0.43;0.10;;;;;;;4.91;83.53;101352.38;5035371;28;20194;-74
2021/03/23 07:53:10;;;;;;;2.73;1.10;;;;;;;4.94;83.39;101347.31;5050688;28;20186;-73
2021/03/23 07:55:36;;;;;;;0.10;0.10;;;;;;;4.95;82.68;101348.13;5014004;28;20746;-75
2021/03/23 07:58:31;;;;;;;0.90;0.90;;;;;;;5.01;82.95;101355.22;5037410;28;20555;-75
2021/03/23 08:00:56;;;;;;;0.40;0.40;;;;;;;5.05;82.31;101350.94;5069373;28;20227;-75
2021/03/23 08:03:46;;;;;;;0.60;0.40;;;;;;;5.07;82.00;101352.34;5048486;28;20254;-75
2021/03/23 08:06:23;;;;;;;0.23;0.23;;;;;;;5.09;81.02;101349.38;5032077;28;20206;-75
2021/03/23 08:09:03;;;;;;;0.10;0.10;;;;;;;5.12;80.83;101346.16;5050642;28;20557;-76
2021/03/23 08:11:40;;;;;;;0.50;0.50;;;;;;;5.15;81.01;101344.81;5051261;28;20167;-75
2021/03/23 08:14:42;;;;;;;1.33;1.23;;;;;;;5.15;80.42;101353.78;5036385;28;20690;-75
2021/03/23 08:17:49;;;;;;;0.10;0.10;;;;;;;5.18;79.85;101357.84;5054022;28;20179;-75
2021/03/23 08:20:33;;;;;;;0.47;0.47;;;;;;;5.18;80.23;101355.97;5053627;28;20179;-74
2021/03/23 08:23:21;;;;;;;0.50;0.50;;;;;;;5.16;80.05;101358.13;5054093;28;20171;-75
2021/03/23 08:26:06;;;;;;;1.47;1.27;;;;;;;5.14;79.63;101352.13;5053896;28;20258;-76
2021/03/23 08:28:36;;;;;;;1.37;1.37;;;;;;;5.20;79.74;101350.28;5054079;28;20191;-75
2021/03/23 08:31:23;;;;;;;0.93;0.93;;;;;;;5.24;79.50;101352.25;5053983;28;20251;-76
2021/03/23 08:34:03;;;;;;;0.93;0.73;;;;;;;5.31;79.29;101338.50;5053857;28;20838;-75
2021/03/23 08:37:02;;;;;;;1.70;1.60;;;;;;;5.35;78.97;101342.34;5053597;28;20206;-75
2021/03/23 08:39:53;;;;;;;1.93;1.77;;;;;;;5.60;79.31;101349.94;5053938;28;20175;-75
2021/03/23 08:42:23;;;;;;;1.43;1.33;;;;;;;5.74;78.18;101361.19;5015779;28;20190;-76
2021/03/23 08:45:01;;;;;;;0.83;0.77;;;;;;;5.72;77.20;101361.44;5053762;28;20719;-75
2021/03/23 08:47:38;;;;;;;0.93;0.93;;;;;;;5.75;77.12;101351.97;5053313;28;20258;-76
2021/03/23 08:50:27;;;;;;;0.50;0.50;;;;;;;5.74;77.37;101353.84;5053665;28;20236;-75
2021/03/23 08:52:55;;;;;;;0.17;0.17;;;;;;;5.74;76.22;101361.19;5053487;28;20167;-76
2021/03/23 08:55:26;;;;;;;0.33;0.33;;;;;;;5.80;76.43;101361.00;5053423;28;20281;-76
2021/03/23 08:58:05;;;;;;;0.83;0.60;;;;;;;5.81;76.82;101359.91;5052545;28;20532;-75
2021/03/23 09:00:36;;;;;;;0.97;0.60;;;;;;;5.87;76.83;101361.59;5053545;28;20183;-75
2021/03/23 09:03:11;;;;;;;0.87;0.87;;;;;;;5.85;77.34;101361.03;5053395;28;20180;-75
2021/03/23 09:06:03;;;;;;;1.07;0.97;;;;;;;5.81;77.06;101362.63;5053373;28;20590;-76
2021/03/23 09:08:39;;;;;;;1.33;1.23;;;;;;;5.80;77.19;101354.75;5044470;28;20240;-75
2021/03/23 09:11:14;;;;;;;4.27;3.13;;;;;;;5.85;77.83;101363.72;5053287;28;20246;-80
2021/03/23 09:13:39;;;;;;;1.73;1.40;;;;;;;5.88;77.67;101356.97;5053190;28;20542;-73
2021/03/23 09:16:11;;;;;;;1.97;1.87;;;;;;;5.86;77.03;101354.53;5052780;28;20256;-75
2021/03/23 09:18:57;;;;;;;1.53;1.43;;;;;;;5.96;76.98;101360.06;5061022;28;20525;-73
2021/03/23 09:21:22;;;;;;;0.20;0.20;;;;;;;6.07;77.56;101350.09;5055027;28;20166;-74
2021/03/23 09:23:50;;;;;;;7.83;1.43;;;;;;;6.03;76.41;101349.00;5071901;28;20657;-76
2021/03/23 09:26:41;;;;;;;1.80;1.60;;;;;;;6.11;76.20;101350.44;5072516;28;20179;-76
2021/03/23 09:29:29;;;;;;;2.03;1.93;;;;;;;6.09;76.12;101349.88;5071621;28;20236;-73
2021/03/23 09:31:54;;;;;;;0.77;0.77;;;;;;;6.03;75.50;101350.91;5072725;28;20664;-76
2021/03/23 09:34:57;;;;;;;1.73;1.63;;;;;;;6.01;75.77;101361.19;5072608;28;20158;-73
2021/03/23 09:37:33;;;;;;;0.83;0.83;;;;;;;6.06;75.80;101359.31;5072564;28;20179;-75
2021/03/23 09:39:59;;;;;;;0.20;0.10;;;;;;;6.09;75.62;101353.41;5072351;28;20177;-74
2021/03/23 09:42:30;;;;;;;1.33;1.27;;;;;;;6.20;75.61;101365.13;5053359;28;20225;-73
2021/03/23 09:45:16;;;;;;;0.47;0.47;;;;;;;6.19;75.18;101341.78;5072286;28;20167;-75
2021/03/23 09:47:53;;;;;;;1.30;1.20;;;;;;;6.23;75.13;101345.66;5071668;28;20180;-75
2021/03/23 09:50:25;;;;;;;5.40;0.97;;;;;;;6.32;75.66;101338.63;5072107;28;20170;-75
2021/03/23 09:53:22;;;;;;;1.53;1.43;;;;;;;6.42;75.33;101343.31;5072132;28;20630;-75
2021/03/23 09:55:49;;;;;;;2.00;1.40;;;;;;;6.45;73.88;101346.31;5046758;28;20468;-73
2021/03/23 09:58:24;;;;;;;0.97;0.90;;;;;;;6.53;73.31;101332.28;5071365;28;20192;-74
2021/03/23 10:00:49;;;;;;;1.67;1.40;;;;;;;6.56;72.93;101341.78;5068145;28;20177;-73
2021/03/23 10:03:36;;;;;;;3.27;3.07;;;;;;;6.56;73.70;101333.66;5070139;28;20191;-74
2021/03/23 10:06:06;;;;;;;1.67;1.57;;;;;;;6.58;74.09;101334.19;5072045;28;20170;-73
2021/03/23 10:08:33;;;;;;;0.40;0.40;;;;;;;6.62;72.98;101329.88;5058692;28;20216;-73
2021/03/23 10:11:18;;;;;;;0.77;0.77;;;;;;;6.67;72.53;101338.06;5050941;28;20214;-73
2021/03/23 10:13:56;;;;;;;0.30;0.30;;;;;;;6.68;72.80;101336.16;5056494;28;20186;-73
2021/03/23 10:16:28;;;;;;;1.23;1.23;;;;;;;6.67;73.04;101338.06;5071206;28;20210;-74
2021/03/23 10:18:57;;;;;;;3.23;1.33;;;;;;;6.76;71.85;101341.88;5071695;28;20209;-74
2021/03/23 10:21:30;;;;;;;1.40;1.30;;;;;;;6.76;71.41;101347.31;5052936;28;20214;-72
2021/03/23 10:24:02;;;;;;;1.17;1.10;;;;;;;6.83;71.42;101337.06;5051474;28;20533;-72
2021/03/23 10:26:42;;;;;;;1.50;1.40;;;;;;;6.74;71.57;101354.09;5049501;28;20730;-75
2021/03/23 10:29:24;;;;;;;1.00;1.00;;;;;;;6.79;71.90;101346.78;5050262;28;20193;-73
2021/03/23 10:31:52;;;;;;;0.83;0.83;;;;;;;6.88;72.25;101352.53;5050006;28;20514;-73
2021/03/23 10:34:24;;;;;;;4.03;1.77;;;;;;;6.81;71.26;101347.38;5051297;28;20660;-72
2021/03/23 10:36:58;;;;;;;5.53;2.63;;;;;;;6.86;71.50;101357.44;5050974;28;20221;-74
2021/03/23 10:39:41;;;;;;;0.57;0.57;;;;;;;6.85;71.08;101350.38;5051377;28;20537;-72
2021/03/23 10:42:22;;;;;;;1.67;1.57;;;;;;;6.85;70.97;101350.38;5049982;28;20326;-73
2021/03/23 10:44:47;;;;;;;1.53;1.30;;;;;;;6.95;71.80;101355.84;5051392;28;20762;-73
2021/03/23 10:47:30;;;;;;;1.43;0.97;;;;;;;6.98;71.67;101363.47;5050815;28;20267;-74
2021/03/23 10:50:16;;;;;;;1.50;1.40;;;;;;;7.06;71.25;101357.50;5049872;28;20551;-73
2021/03/23 10:52:42;;;;;;;1.33;1.20;;;;;;;7.05;71.17;101360.50;5051015;28;20175;-74
2021/03/23 10:55:32;;;;;;;2.23;1.80;;;;;;;7.09;71.05;101353.47;5051428;28;20213;-74
2021/03/23 10:58:14;;;;;;;2.13;1.87;;;;;;;7.18;71.13;101360.00;5050224;28;20244;-74
2021/03/23 11:00:40;;;;;;;0.60;0.60;;;;;;;7.21;71.05;101361.38;5050843;28;20525;-74
2021/03/23 11:03:32;;;;;;;1.43;1.33;;;;;;;7.18;70.81;101373.59;5051051;28;20187;-73
2021/03/23 11:05:59;;;;;;;7.20;2.60;;;;;;;7.13;70.75;101370.88;5030996;28;20286;-73
2021/03/23 11:08:26;;;;;;;30.43;1.00;;;;;;;7.24;71.95;101366.31;5052836;28;20186;-73
2021/03/23 11:10:56;;;;;;;1.40;1.30;;;;;;;7.20;70.37;101357.03;5055228;28;20187;-73
2021/03/23 11:13:22;;;;;;;1.33;1.33;;;;;;;7.17;71.02;101361.09;5050788;28;20507;-72
2021/03/23 11:15:49;;;;;;;1.10;1.07;;;;;;;7.18;71.30;101364.63;5050358;28;20262;-72
2021/03/23 11:18:29;;;;;;;16.70;1.93;;;;;;;7.19;71.31;101356.22;5058463;28;20190;-73
2021/03/23 11:20:56;;;;;;;2.47;2.37;;;;;;;7.19;70.89;101358.94;5063510;28;20204;-73
2021/03/23 11:26:03;;;;;;;2.63;2.10;;;;;;;7.32;69.88;101358.44;5052735;28;20464;-75
2021/03/23 11:28:31;;;;;;;1.47;1.30;;;;;;;7.30;69.83;101360.59;5050386;28;20442;-73
2021/03/23 11:31:00;;;;;;;1.90;1.67;;;;;;;7.34;69.56;101364.41;5049064;28;20260;-73
2021/03/23 11:33:25;;;;;;;5.90;1.70;;;;;;;7.34;69.90;101356.25;5050106;28;20183;-74
2021/03/23 11:35:51;;;;;;;3.20;1.33;;;;;;;7.30;69.63;101352.44;5049035;28;20305;-72
2021/03/23 11:38:18;;;;;;;4.20;2.03;;;;;;;7.31;70.66;101348.66;5050143;28;20181;-73
2021/03/23 11:40:43;;;;;;;2.73;2.53;;;;;;;7.36;69.24;101351.38;5032860;28;20580;-73
2021/03/23 11:43:36;;;;;;;3.87;3.47;;;;;;;7.43;69.36;101345.69;5050536;28;20237;-73
2021/03/23 11:46:08;;;;;;;2.27;2.07;;;;;;;7.54;69.74;101344.63;5031988;28;20582;-73
2021/03/23 11:48:42;;;;;;;4.90;3.57;;;;;;;7.59;69.60;101351.97;5050428;28;20179;-73
2021/03/23 11:51:09;;;;;;;3.47;3.17;;;;;;;7.61;69.53;101342.47;5050378;28;20183;-73
2021/03/23 11:53:34;;;;;;;3.97;2.60;;;;;;;7.61;68.28;101339.75;5050304;28;20661;-73
2021/03/23 11:56:00;;;;;;;3.77;1.10;;;;;;;7.60;69.25;101340.00;5049425;28;20210;-73
2021/03/23 11:58:26;;;;;;;2.23;2.13;;;;;;;7.48;68.47;101342.97;5049962;28;20253;-73